createdAt,value
2023-07-11T00:00:40.360Z,9.40
2023-07-11T00:03:07.148Z,9.60
2023-07-11T00:05:33.782Z,9.20
2023-07-11T00:08:00.350Z,9.50
2023-07-11T00:10:27.087Z,9.60
2023-07-11T00:12:53.969Z,9.80
2023-07-11T00:15:20.544Z,9.20
2023-07-11T00:17:48.893Z,9.00
2023-07-11T00:20:16.632Z,9.20
2023-07-11T00:22:44.946Z,10.10
2023-07-11T00:25:13.463Z,9.50
2023-07-11T00:27:41.042Z,9.10
2023-07-11T00:30:08.742Z,9.00
2023-07-11T00:32:35.965Z,9.90
2023-07-11T00:35:02.657Z,8.90
2023-07-11T00:37:29.191Z,8.90
2023-07-11T00:39:55.816Z,8.60
2023-07-11T00:42:22.462Z,9.20
2023-07-11T00:44:49.902Z,8.90
2023-07-11T00:47:16.619Z,9.60
2023-07-11T00:49:43.300Z,9.30
2023-07-11T00:52:10.562Z,9.00
2023-07-11T00:54:38.680Z,8.60
2023-07-11T00:57:10.505Z,8.90
2023-07-11T00:59:37.339Z,9.10
2023-07-11T01:02:09.694Z,8.80
2023-07-11T01:04:38.636Z,9.00
2023-07-11T01:07:08.755Z,8.50
2023-07-11T01:09:35.786Z,8.10
2023-07-11T01:12:06.355Z,8.60
2023-07-11T01:16:59.715Z,8.00
2023-07-11T01:19:26.878Z,9.10
2023-07-11T01:21:53.924Z,9.00
2023-07-11T01:24:20.447Z,9.20
2023-07-11T01:26:46.957Z,9.80
2023-07-11T01:29:13.966Z,9.30
2023-07-11T01:31:40.542Z,9.10
2023-07-11T01:34:08.592Z,8.80
2023-07-11T01:36:35.789Z,9.10
2023-07-11T01:39:02.393Z,8.80
2023-07-11T01:41:29.028Z,9.40
2023-07-11T01:43:56.171Z,9.30
2023-07-11T01:46:22.877Z,9.10
2023-07-11T01:48:49.718Z,9.00
2023-07-11T01:51:17.117Z,8.70
2023-07-11T01:53:43.881Z,9.30
2023-07-11T01:56:10.550Z,9.00
2023-07-11T01:58:37.029Z,8.80
2023-07-11T02:01:03.612Z,8.90
2023-07-11T02:03:30.896Z,9.20
2023-07-11T02:05:58.234Z,9.20
2023-07-11T02:08:25.009Z,8.80
2023-07-11T02:10:51.654Z,8.80
2023-07-11T02:13:18.277Z,9.10
2023-07-11T02:15:44.800Z,9.00
2023-07-11T02:18:11.831Z,8.80
2023-07-11T02:20:43.620Z,10.10
2023-07-11T02:23:11.965Z,9.60
2023-07-11T02:25:40.701Z,8.70
2023-07-11T02:28:08.334Z,9.70
2023-07-11T02:30:35.541Z,9.60
2023-07-11T02:33:02.399Z,9.10
2023-07-11T02:35:29.188Z,9.20
2023-07-11T02:37:56.328Z,9.00
2023-07-11T02:40:23.027Z,9.40
2023-07-11T02:42:49.516Z,9.60
2023-07-11T02:45:16.533Z,8.60
2023-07-11T02:47:43.159Z,9.50
2023-07-11T02:50:10.077Z,9.40
2023-07-11T02:52:37.771Z,8.90
2023-07-11T02:55:05.445Z,9.40
2023-07-11T02:57:32.280Z,9.20
2023-07-11T02:59:58.958Z,9.00
2023-07-11T03:02:25.566Z,8.90
2023-07-11T03:04:52.365Z,9.10
2023-07-11T03:07:19.356Z,9.90
2023-07-11T03:09:45.846Z,8.80
2023-07-11T03:12:12.365Z,9.00
2023-07-11T03:14:38.932Z,9.40
2023-07-11T03:17:05.597Z,8.70
2023-07-11T03:19:32.609Z,8.00
2023-07-11T03:21:59.464Z,7.60
2023-07-11T03:24:25.966Z,7.50
2023-07-11T03:26:52.736Z,7.20
2023-07-11T03:29:19.412Z,7.40
2023-07-11T03:31:45.944Z,7.00
2023-07-11T03:34:12.574Z,6.30
2023-07-11T03:36:39.839Z,6.00
2023-07-11T03:39:06.552Z,6.10
2023-07-11T03:41:33.484Z,5.80
2023-07-11T03:44:00.992Z,6.10
2023-07-11T03:46:28.141Z,6.40
2023-07-11T03:48:55.108Z,5.90
2023-07-11T03:51:21.686Z,6.50
2023-07-11T03:53:48.293Z,6.40
2023-07-11T03:56:14.774Z,6.50
2023-07-11T03:58:41.420Z,5.80
2023-07-11T04:01:07.927Z,5.70
2023-07-11T04:03:35.026Z,5.80
2023-07-11T04:06:01.930Z,5.80
2023-07-11T04:08:28.466Z,6.10
2023-07-11T04:10:56.967Z,5.80
2023-07-11T04:13:23.822Z,6.50
2023-07-11T04:15:50.485Z,6.10
2023-07-11T04:18:17.109Z,6.30
2023-07-11T04:20:44.175Z,6.40
2023-07-11T04:23:11.231Z,6.00
2023-07-11T04:25:37.757Z,6.10
2023-07-11T04:28:06.198Z,5.40
2023-07-11T04:30:33.762Z,5.40
2023-07-11T04:33:00.999Z,4.90
2023-07-11T04:35:27.635Z,5.10
2023-07-11T04:37:54.186Z,5.10
2023-07-11T04:40:20.699Z,5.00
2023-07-11T04:42:47.564Z,5.10
2023-07-11T04:45:14.189Z,5.20
2023-07-11T04:47:40.696Z,4.70
2023-07-11T04:50:08.021Z,5.40
2023-07-11T04:52:34.565Z,5.00
2023-07-11T04:55:01.266Z,4.80
2023-07-11T04:57:27.853Z,4.50
2023-07-11T04:59:54.334Z,4.60
2023-07-11T05:02:20.860Z,4.50
2023-07-11T05:04:47.508Z,4.30
2023-07-11T05:07:14.968Z,4.30
2023-07-11T05:09:57.197Z,4.80
2023-07-11T05:12:25.857Z,4.60
2023-07-11T05:14:52.534Z,4.50
2023-07-11T05:17:19.283Z,4.40
2023-07-11T05:19:46.044Z,4.30
2023-07-11T05:22:12.878Z,4.50
2023-07-11T05:24:39.374Z,4.70
2023-07-11T05:27:06.071Z,4.40
2023-07-11T05:29:32.543Z,4.50
2023-07-11T05:31:59.136Z,4.40
2023-07-11T05:34:26.168Z,4.60
2023-07-11T05:36:52.816Z,4.20
2023-07-11T05:39:19.668Z,4.30
2023-07-11T05:41:51.636Z,4.20
2023-07-11T05:44:18.141Z,4.30
2023-07-11T05:46:47.834Z,4.00
2023-07-11T05:49:15.954Z,4.10
2023-07-11T05:51:42.615Z,4.00
2023-07-11T05:54:09.449Z,4.30
2023-07-11T05:56:35.965Z,4.40
2023-07-11T05:59:02.494Z,4.20
2023-07-11T06:01:31.043Z,4.30
2023-07-11T06:04:23.865Z,4.30
2023-07-11T06:06:50.449Z,4.60
2023-07-11T06:09:19.614Z,4.80
2023-07-11T06:11:48.857Z,4.20
2023-07-11T06:14:16.975Z,4.40
2023-07-11T06:16:47.183Z,4.60
2023-07-11T06:19:17.080Z,4.40
2023-07-11T06:21:43.623Z,4.30
2023-07-11T06:24:10.385Z,4.80
2023-07-11T06:26:37.133Z,4.20
2023-07-11T06:29:03.822Z,4.30
2023-07-11T06:31:30.365Z,4.80
2023-07-11T06:33:57.461Z,4.40
2023-07-11T06:36:24.307Z,4.30
2023-07-11T06:38:51.060Z,4.40
2023-07-11T06:41:17.617Z,3.90
2023-07-11T06:43:44.134Z,4.20
2023-07-11T06:46:10.800Z,4.30
2023-07-11T06:48:37.472Z,4.90
2023-07-11T06:51:05.376Z,4.20
2023-07-11T06:53:34.651Z,4.50
2023-07-11T06:56:02.626Z,4.40
2023-07-11T06:58:29.719Z,4.90
2023-07-11T07:00:59.671Z,4.40
2023-07-11T07:03:26.341Z,4.50
2023-07-11T07:05:56.271Z,4.30
2023-07-11T07:08:24.751Z,4.60
2023-07-11T07:10:52.067Z,4.40
2023-07-11T07:13:21.435Z,4.00
2023-07-11T07:15:50.224Z,4.00
2023-07-11T07:18:17.303Z,4.10
2023-07-11T07:20:56.221Z,4.40
2023-07-11T07:23:25.468Z,4.00
2023-07-11T07:25:54.693Z,3.80
2023-07-11T07:28:21.874Z,4.10
2023-07-11T07:30:50.137Z,3.60
2023-07-11T07:33:16.966Z,4.00
2023-07-11T07:35:44.123Z,4.30
2023-07-11T07:38:11.309Z,3.30
2023-07-11T07:40:38.780Z,3.40
2023-07-11T07:43:05.636Z,4.00
2023-07-11T07:45:32.312Z,3.80
2023-07-11T07:47:58.912Z,3.90
2023-07-11T07:50:25.633Z,3.90
2023-07-11T07:52:52.182Z,3.80
2023-07-11T07:55:18.823Z,4.10
2023-07-11T07:57:46.729Z,3.60
2023-07-11T08:00:13.943Z,3.90
2023-07-11T08:02:40.503Z,4.00
2023-07-11T08:05:07.706Z,3.70
2023-07-11T08:07:34.931Z,3.30
2023-07-11T08:10:01.544Z,3.20
2023-07-11T08:12:28.059Z,4.10
2023-07-11T08:14:54.557Z,4.00
2023-07-11T08:17:21.212Z,3.70
2023-07-11T08:19:48.518Z,4.10
2023-07-11T08:22:15.351Z,3.30
2023-07-11T08:24:41.923Z,3.40
2023-07-11T08:27:08.413Z,3.00
2023-07-11T08:29:35.135Z,3.50
2023-07-11T08:32:01.602Z,3.20
2023-07-11T08:34:28.259Z,3.30
2023-07-11T08:36:55.305Z,3.60
2023-07-11T08:39:22.397Z,3.60
2023-07-11T08:41:52.714Z,6.00
2023-07-11T08:44:28.300Z,4.10
2023-07-11T08:47:22.785Z,3.30
2023-07-11T08:49:54.006Z,3.60
2023-07-11T08:52:22.752Z,3.40
2023-07-11T08:55:05.956Z,3.30
2023-07-11T08:57:36.938Z,3.50
2023-07-11T09:00:13.066Z,3.10
2023-07-11T09:02:51.326Z,3.40
2023-07-11T09:05:53.309Z,3.20
2023-07-11T09:08:21.706Z,3.70
2023-07-11T09:11:03.484Z,3.30
2023-07-11T09:14:01.246Z,4.10
2023-07-11T09:16:27.812Z,3.60
2023-07-11T09:19:06.845Z,3.50
2023-07-11T09:21:50.350Z,3.50
2023-07-11T09:25:00.458Z,4.00
2023-07-11T09:27:35.731Z,4.20
2023-07-11T09:30:34.387Z,3.30
2023-07-11T09:33:19.140Z,3.40
2023-07-11T09:35:46.850Z,3.30
2023-07-11T09:38:19.284Z,3.40
2023-07-11T09:40:52.617Z,3.10
2023-07-11T09:43:19.218Z,3.40
2023-07-11T09:45:45.994Z,3.40
2023-07-11T09:48:34.313Z,3.10
2023-07-11T09:53:30.820Z,3.80
2023-07-11T09:56:12.345Z,3.40
2023-07-11T09:58:41.290Z,3.60
2023-07-11T10:01:17.597Z,3.80
2023-07-11T10:03:46.916Z,3.40
2023-07-11T10:06:32.742Z,3.60
2023-07-11T10:09:23.665Z,4.00
2023-07-11T10:11:54.614Z,3.60
2023-07-11T10:14:29.124Z,3.10
2023-07-11T10:16:57.405Z,3.50
2023-07-11T10:19:24.917Z,3.40
2023-07-11T10:21:53.093Z,3.50
2023-07-11T10:24:25.425Z,3.10
2023-07-11T10:27:05.192Z,3.60
2023-07-11T10:29:40.477Z,3.00
2023-07-11T10:32:14.580Z,3.20
2023-07-11T10:34:45.452Z,3.30
2023-07-11T10:37:46.621Z,3.60
2023-07-11T10:40:25.535Z,3.10
2023-07-11T10:43:25.609Z,3.10
2023-07-11T10:46:10.985Z,3.30
2023-07-11T10:48:46.759Z,4.00
2023-07-11T10:51:21.301Z,3.70
2023-07-11T10:54:12.575Z,3.30
2023-07-11T10:56:45.799Z,3.90
2023-07-11T10:59:14.427Z,3.50
2023-07-11T11:01:59.595Z,3.60
2023-07-11T11:04:51.035Z,3.40
2023-07-11T11:07:17.678Z,3.60
2023-07-11T11:10:05.148Z,4.00
2023-07-11T11:12:39.642Z,3.30
2023-07-11T11:15:21.582Z,3.20
2023-07-11T11:18:24.622Z,3.00
2023-07-11T11:21:21.136Z,3.10
2023-07-11T11:24:18.150Z,3.20
2023-07-11T11:27:24.373Z,3.50
2023-07-11T11:30:15.080Z,3.60
2023-07-11T11:32:54.257Z,3.70
2023-07-11T11:35:47.864Z,3.10
2023-07-11T11:38:26.304Z,3.60
2023-07-11T11:51:33.899Z,3.70
2023-07-11T11:54:26.928Z,3.00
2023-07-11T11:57:00.249Z,3.40
2023-07-11T11:59:28.930Z,3.30
2023-07-11T12:01:55.444Z,3.40
2023-07-11T12:04:36.776Z,3.10
2023-07-11T12:07:03.547Z,3.80
2023-07-11T12:09:45.840Z,3.40
2023-07-11T12:12:19.469Z,3.30
2023-07-11T12:14:59.733Z,3.40
2023-07-11T12:17:32.546Z,3.50
2023-07-11T12:20:02.693Z,3.50
2023-07-11T12:22:38.396Z,3.40
2023-07-11T12:27:17.686Z,4.50
2023-07-11T12:29:54.664Z,3.50
2023-07-11T12:32:33.723Z,3.50
2023-07-11T12:35:06.584Z,3.90
